Map

Track Data

SID SEASON NUMBER BASIN SUBBASIN NAME ISO_TIME NATURE LAT LON WMO_WIND WMO_PRES WMO_AGENCY TRACK_TYPE DIST2LAND LANDFALL IFLAG USA_AGENCY USA_ATCF_ID USA_LAT USA_LON USA_RECORD USA_STATUS USA_WIND USA_PRES USA_SSHS USA_R34_NE USA_R34_SE USA_R34_SW USA_R34_NW USA_R50_NE USA_R50_SE USA_R50_SW USA_R50_NW USA_R64_NE USA_R64_SE USA_R64_SW USA_R64_NW USA_POCI USA_ROCI USA_RMW USA_EYE TOKYO_LAT TOKYO_LON TOKYO_GRADE TOKYO_WIND TOKYO_PRES TOKYO_R50_DIR TOKYO_R50_LONG TOKYO_R50_SHORT TOKYO_R30_DIR TOKYO_R30_LONG TOKYO_R30_SHORT TOKYO_LAND CMA_LAT CMA_LON CMA_CAT CMA_WIND CMA_PRES HKO_LAT HKO_LON HKO_CAT HKO_WIND HKO_PRES NEWDELHI_LAT NEWDELHI_LON NEWDELHI_GRADE NEWDELHI_WIND NEWDELHI_PRES NEWDELHI_CI NEWDELHI_DP NEWDELHI_POCI REUNION_LAT REUNION_LON REUNION_TYPE REUNION_WIND REUNION_PRES REUNION_TNUM REUNION_CI REUNION_RMW REUNION_R34_NE REUNION_R34_SE REUNION_R34_SW REUNION_R34_NW REUNION_R50_NE REUNION_R50_SE REUNION_R50_SW REUNION_R50_NW REUNION_R64_NE REUNION_R64_SE REUNION_R64_SW REUNION_R64_NW BOM_LAT BOM_LON BOM_TYPE BOM_WIND BOM_PRES BOM_TNUM BOM_CI BOM_RMW BOM_R34_NE BOM_R34_SE BOM_R34_SW BOM_R34_NW BOM_R50_NE BOM_R50_SE BOM_R50_SW BOM_R50_NW BOM_R64_NE BOM_R64_SE BOM_R64_SW BOM_R64_NW BOM_ROCI BOM_POCI BOM_EYE BOM_POS_METHOD BOM_PRES_METHOD NADI_LAT NADI_LON NADI_CAT NADI_WIND NADI_PRES WELLINGTON_LAT WELLINGTON_LON WELLINGTON_WIND WELLINGTON_PRES DS824_LAT DS824_LON DS824_STAGE DS824_WIND DS824_PRES TD9636_LAT TD9636_LON TD9636_STAGE TD9636_WIND TD9636_PRES TD9635_LAT TD9635_LON TD9635_WIND TD9635_PRES TD9635_ROCI NEUMANN_LAT NEUMANN_LON NEUMANN_CLASS NEUMANN_WIND NEUMANN_PRES MLC_LAT MLC_LON MLC_CLASS MLC_WIND MLC_PRES USA_GUST BOM_GUST BOM_GUST_PER REUNION_GUST REUNION_GUST_PER USA_SEAHGT USA_SEARAD_NE USA_SEARAD_SE USA_SEARAD_SW USA_SEARAD_NW STORM_SPEED STORM_DIR
1981255N12286 1981 77 NA CS NOT_NAMED 1981-09-12 00:00:00 TS 11.8000 -73.8000 20 hurdat_atl main 67 67 O_____________ hurdat_atl AL171981 11.8000 -73.8000 TD 20 -1 11 276
1981255N12286 1981 77 NA CS NOT_NAMED 1981-09-12 03:00:00 TS 11.8527 -74.3499 main 79 79 P_____________ AL171981 11.8527 -74.3499 TD 22 -1 11 275
1981255N12286 1981 77 NA CS NOT_NAMED 1981-09-12 06:00:00 TS 11.9000 -74.9000 25 hurdat_atl main 100 100 O_____________ hurdat_atl AL171981 11.9000 -74.9000 TD 25 -1 11 275
1981255N12286 1981 77 NA CS NOT_NAMED 1981-09-12 09:00:00 TS 11.9424 -75.4501 main 120 120 P_____________ AL171981 11.9424 -75.4501 TD 25 -1 11 275
1981255N12286 1981 77 NA CS NOT_NAMED 1981-09-12 12:00:00 TS 12.0000 -76.0000 25 hurdat_atl main 154 154 O_____________ hurdat_atl AL171981 12.0000 -76.0000 TD 25 -1 11 278
1981255N12286 1981 77 NA CS NOT_NAMED 1981-09-12 15:00:00 TS 12.0999 -76.5499 main 195 195 P_____________ AL171981 12.0999 -76.5499 TD 27 -1 11 281
1981255N12286 1981 77 NA CS NOT_NAMED 1981-09-12 18:00:00 TS 12.2000 -77.1000 30 hurdat_atl main 250 250 O_____________ hurdat_atl AL171981 12.2000 -77.1000 TD 30 -1 11 278
1981255N12286 1981 77 NA CS NOT_NAMED 1981-09-12 21:00:00 TS 12.2573 -77.6426 main 297 297 P_____________ AL171981 12.2573 -77.6426 TD 30 -1 11 275
1981255N12286 1981 77 NA CS NOT_NAMED 1981-09-13 00:00:00 TS 12.3000 -78.2000 30 hurdat_atl main 328 315 O_____________ hurdat_atl AL171981 12.3000 -78.2000 TD 30 -1 11 275
1981255N12286 1981 77 NA CS NOT_NAMED 1981-09-13 03:00:00 TS 12.3499 -78.7925 main 315 315 P_____________ AL171981 12.3499 -78.7925 TD 30 -1 12 275
1981255N12286 1981 77 NA CS NOT_NAMED 1981-09-13 06:00:00 TS 12.4000 -79.4000 30 hurdat_atl main 324 324 O_____________ hurdat_atl AL171981 12.4000 -79.4000 TD 30 -1 12 274
1981255N12286 1981 77 NA CS NOT_NAMED 1981-09-13 09:00:00 TS 12.4350 -80.0301 main 326 315 P_____________ AL171981 12.4350 -80.0301 TD 30 -1 12 275
1981255N12286 1981 77 NA CS NOT_NAMED 1981-09-13 12:00:00 TS 12.5000 -80.6000 30 hurdat_atl main 315 271 O_____________ hurdat_atl AL171981 12.5000 -80.6000 TD 30 -1 10 282
1981255N12286 1981 77 NA CS NOT_NAMED 1981-09-13 15:00:00 TS 12.6497 -81.0224 main 271 227 P_____________ AL171981 12.6497 -81.0224 TD 30 -1 8 291
1981255N12286 1981 77 NA CS NOT_NAMED 1981-09-13 18:00:00 TS 12.8000 -81.4000 30 hurdat_atl main 227 184 O_____________ hurdat_atl AL171981 12.8000 -81.4000 TD 30 -1 8 286
1981255N12286 1981 77 NA CS NOT_NAMED 1981-09-13 21:00:00 TS 12.8725 -81.8426 main 184 130 P_____________ AL171981 12.8725 -81.8426 TD 30 -1 9 277
1981255N12286 1981 77 NA CS NOT_NAMED 1981-09-14 00:00:00 TS 12.9000 -82.3000 30 hurdat_atl main 130 86 O_____________ hurdat_atl AL171981 12.9000 -82.3000 TD 30 -1 9 272
1981255N12286 1981 77 NA CS NOT_NAMED 1981-09-14 03:00:00 TS 12.9000 -82.7576 main 75 32 P_____________ AL171981 12.9000 -82.7576 TD 27 -1 9 270
1981255N12286 1981 77 NA CS NOT_NAMED 1981-09-14 06:00:00 TS 12.9000 -83.2000 25 hurdat_atl main 32 0 O_____________ hurdat_atl AL171981 12.9000 -83.2000 TD 25 -1 8 273
1981255N12286 1981 77 NA NA NOT_NAMED 1981-09-14 09:00:00 TS 12.9376 -83.6099 main 0 0 P_____________ AL171981 12.9376 -83.6099 TD -1 8 277
1981255N12286 1981 77 NA NA NOT_NAMED 1981-09-14 12:00:00 TS 13.0000 -84.0000 hurdat_atl main 0 O_____________ hurdat_atl AL171981 13.0000 -84.0000 TD -1 8 279

About IBTrACS Database

This database is a web-friendly format of International Best Track Archive for Climate Stewardship (IBTrACS), a global best track data archive curated by NOAA dating back to 1842.

Updated: 2021-10-25